createdAt,value
2023-10-29T00:02:13.075Z,97916.03
2023-10-29T00:04:40.502Z,97921.16
2023-10-29T00:07:07.346Z,97917.63
2023-10-29T00:09:34.430Z,97918.19
2023-10-29T00:12:01.739Z,97912.75
2023-10-29T00:14:28.748Z,97916.56
2023-10-29T00:16:55.905Z,97914.94
2023-10-29T00:19:22.949Z,97923.34
2023-10-29T00:21:50.021Z,97920.34
2023-10-29T00:24:16.802Z,97922.53
2023-10-29T00:26:43.634Z,97942.63
2023-10-29T00:29:10.732Z,97935.56
2023-10-29T00:31:37.805Z,97932.31
2023-10-29T00:34:05.023Z,97944.78
2023-10-29T00:36:32.129Z,97937.47
2023-10-29T00:38:58.965Z,97936.66
2023-10-29T00:41:26.365Z,97940.12
2023-10-29T00:43:53.542Z,97930.09
2023-10-29T00:46:21.236Z,97928.47
2023-10-29T00:48:49.431Z,97929.81
2023-10-29T00:51:16.675Z,97917.06
2023-10-29T00:53:44.958Z,97923.56
2023-10-29T00:56:14.017Z,97915.72
2023-10-29T00:58:42.656Z,97928.72
2023-10-29T01:01:09.758Z,97927.37
2023-10-29T01:03:36.988Z,97931.16
2023-10-29T01:06:04.874Z,97934.97
2023-10-29T01:08:32.132Z,97930.63
2023-10-29T01:10:59.262Z,97927.37
2023-10-29T01:13:26.296Z,97943.06
2023-10-29T01:15:53.405Z,97941.97
2023-10-29T01:18:20.494Z,97931.12
2023-10-29T01:20:47.661Z,97934.09
2023-10-29T01:23:14.940Z,97935.44
2023-10-29T01:25:42.916Z,97940.59
2023-10-29T01:28:10.054Z,97931.91
2023-10-29T01:30:37.130Z,97936.78
2023-10-29T01:33:04.176Z,97944.94
2023-10-29T01:35:31.478Z,97939.78
2023-10-29T01:37:58.467Z,97939.78
2023-10-29T01:40:25.305Z,97926.16
2023-10-29T01:42:52.357Z,97937.00
2023-10-29T01:45:19.224Z,97935.37
2023-10-29T01:47:46.889Z,97929.69
2023-10-29T01:50:14.603Z,97937.25
2023-10-29T01:52:41.844Z,97926.97
2023-10-29T01:55:10.378Z,97922.34
2023-10-29T01:57:37.755Z,97926.97
2023-10-29T02:00:07.267Z,97913.66
2023-10-29T02:02:34.933Z,97915.84
2023-10-29T02:05:08.088Z,97916.09
2023-10-29T02:07:35.274Z,97919.06
2023-10-29T02:10:09.205Z,97913.88
2023-10-29T02:12:36.799Z,97909.78
2023-10-29T02:15:05.936Z,97913.56
2023-10-29T02:17:33.340Z,97911.13
2023-10-29T02:20:00.823Z,97918.97
2023-10-29T02:22:30.946Z,97919.25
2023-10-29T02:24:57.978Z,97916.81
2023-10-29T02:27:25.012Z,97916.81
2023-10-29T02:29:52.123Z,97914.34
2023-10-29T02:32:19.013Z,97911.91
2023-10-29T02:34:45.944Z,97915.72
2023-10-29T02:37:12.849Z,97913.81
2023-10-29T02:39:40.073Z,97911.91
2023-10-29T02:42:07.308Z,97908.69
2023-10-29T02:44:34.431Z,97898.66
2023-10-29T02:47:01.248Z,97903.25
2023-10-29T02:49:28.417Z,97894.03
2023-10-29T02:51:55.438Z,97894.03
2023-10-29T02:54:22.516Z,97893.50
2023-10-29T02:56:49.898Z,97891.34
2023-10-29T02:59:16.959Z,97899.72
2023-10-29T03:01:43.948Z,97898.09
2023-10-29T03:04:11.125Z,97904.06
2023-10-29T03:06:42.968Z,97904.59
2023-10-29T03:09:10.807Z,97907.03
2023-10-29T03:11:37.675Z,97905.66
2023-10-29T03:14:04.981Z,97909.72
2023-10-29T03:16:32.095Z,97922.44
2023-10-29T03:18:59.518Z,97917.03
2023-10-29T03:21:27.786Z,97912.37
2023-10-29T03:23:54.806Z,97911.00
2023-10-29T03:26:21.929Z,97911.81
2023-10-29T03:28:49.675Z,97906.69
2023-10-29T03:31:17.803Z,97907.47
2023-10-29T03:33:46.296Z,97906.38
2023-10-29T03:36:14.129Z,97897.72
2023-10-29T03:38:41.522Z,97892.28
2023-10-29T03:41:19.260Z,97893.38
2023-10-29T03:43:46.334Z,97894.44
2023-10-29T03:46:13.145Z,97899.88
2023-10-29T03:48:45.834Z,97905.56
2023-10-29T03:51:14.230Z,97914.50
2023-10-29T03:53:41.994Z,97918.53
2023-10-29T03:56:09.381Z,97920.19
2023-10-29T03:58:36.654Z,97920.19
2023-10-29T04:01:03.680Z,97918.00
2023-10-29T04:03:31.051Z,97922.88
2023-10-29T04:05:58.287Z,97915.53
2023-10-29T04:08:25.541Z,97912.28
2023-10-29T04:10:53.366Z,97905.22
2023-10-29T04:13:20.437Z,97897.34
2023-10-29T04:15:47.888Z,97907.91
2023-10-29T04:18:15.387Z,97890.84
2023-10-29T04:20:42.390Z,97888.38
2023-10-29T04:23:09.224Z,97896.78
2023-10-29T04:25:36.451Z,97888.91
2023-10-29T04:28:03.586Z,97887.28
2023-10-29T04:30:30.756Z,97875.09
2023-10-29T04:32:57.868Z,97876.97
2023-10-29T04:35:25.325Z,97884.28
2023-10-29T04:37:52.450Z,97889.69
2023-10-29T04:40:19.937Z,97880.75
2023-10-29T04:42:46.840Z,97880.50
2023-10-29T04:45:14.079Z,97886.72
2023-10-29T04:47:41.212Z,97889.19
2023-10-29T04:50:08.556Z,97882.94
2023-10-29T04:52:35.616Z,97882.13
2023-10-29T04:55:02.881Z,97882.13
2023-10-29T04:57:30.461Z,97884.03
2023-10-29T04:59:57.950Z,97879.69
2023-10-29T05:02:25.134Z,97883.47
2023-10-29T05:04:52.384Z,97874.78
2023-10-29T05:07:19.654Z,97881.28
2023-10-29T05:09:46.880Z,97862.34
2023-10-29T05:12:13.826Z,97860.97
2023-10-29T05:14:40.988Z,97856.06
2023-10-29T05:17:08.479Z,97861.47
2023-10-29T05:19:35.668Z,97859.84
2023-10-29T05:22:02.538Z,97862.53
2023-10-29T05:24:29.640Z,97855.50
2023-10-29T05:26:56.487Z,97866.31
2023-10-29T05:29:23.678Z,97857.91
2023-10-29T05:31:50.517Z,97862.50
2023-10-29T05:34:17.400Z,97857.09
2023-10-29T05:36:44.747Z,97853.31
2023-10-29T05:39:11.812Z,97849.78
2023-10-29T05:41:38.881Z,97854.13
2023-10-29T05:44:06.217Z,97852.50
2023-10-29T05:46:33.752Z,97856.56
2023-10-29T05:49:00.936Z,97863.62
2023-10-29T05:51:28.521Z,97859.03
2023-10-29T05:53:56.549Z,97860.66
2023-10-29T05:56:24.276Z,97865.25
2023-10-29T05:58:51.095Z,97871.47
2023-10-29T06:01:18.470Z,97860.66
2023-10-29T06:03:45.552Z,97863.12
2023-10-29T06:06:12.537Z,97868.00
2023-10-29T06:08:39.913Z,97875.31
2023-10-29T06:11:07.090Z,97874.25
2023-10-29T06:13:34.119Z,97875.88
2023-10-29T06:16:01.356Z,97885.62
2023-10-29T06:18:28.725Z,97894.31
2023-10-29T06:20:56.127Z,97887.81
2023-10-29T06:23:23.022Z,97887.53
2023-10-29T06:25:49.867Z,97889.19
2023-10-29T06:28:16.910Z,97885.13
2023-10-29T06:30:45.467Z,97888.94
2023-10-29T06:33:12.743Z,97883.81
2023-10-29T06:35:41.949Z,97876.81
2023-10-29T06:38:08.942Z,97878.19
2023-10-29T06:40:36.227Z,97884.97
2023-10-29T06:43:04.822Z,97887.94
2023-10-29T06:45:31.764Z,97880.09
2023-10-29T06:47:59.387Z,97878.50
2023-10-29T06:50:26.494Z,97887.72
2023-10-29T06:52:53.306Z,97883.44
2023-10-29T06:55:21.573Z,97881.00
2023-10-29T06:57:48.392Z,97887.53
2023-10-29T07:00:15.341Z,97885.62
2023-10-29T07:02:42.376Z,97877.78
2023-10-29T07:05:09.495Z,97880.53
2023-10-29T07:07:36.785Z,97875.16
2023-10-29T07:10:05.460Z,97875.19
2023-10-29T07:12:32.937Z,97882.50
2023-10-29T07:14:59.965Z,97878.97
2023-10-29T07:17:26.908Z,97879.28
2023-10-29T07:19:53.946Z,97875.22
2023-10-29T07:22:21.066Z,97870.91
2023-10-29T07:24:48.245Z,97872.78
2023-10-29T07:27:15.887Z,97885.56
2023-10-29T07:29:43.684Z,97876.59
2023-10-29T07:32:10.785Z,97880.97
2023-10-29T07:34:37.949Z,97882.87
2023-10-29T07:37:05.017Z,97886.69
2023-10-29T07:39:32.160Z,97873.91
2023-10-29T07:41:59.081Z,97875.00
2023-10-29T07:44:26.094Z,97872.59
2023-10-29T07:46:53.259Z,97885.88
2023-10-29T07:49:21.612Z,97876.94
2023-10-29T07:51:51.760Z,97878.28
2023-10-29T07:54:18.997Z,97887.22
2023-10-29T07:56:46.423Z,97878.56
2023-10-29T07:59:13.346Z,97876.66
2023-10-29T08:01:40.496Z,97882.09
2023-10-29T08:04:09.147Z,97886.16
2023-10-29T08:06:36.065Z,97879.91
2023-10-29T08:09:03.016Z,97892.66
2023-10-29T08:11:30.738Z,97885.06
2023-10-29T08:13:58.140Z,97887.25
2023-10-29T08:16:25.141Z,97901.91
2023-10-29T08:18:52.077Z,97901.34
2023-10-29T08:21:19.375Z,97904.34
2023-10-29T08:23:49.575Z,97907.03
2023-10-29T08:26:17.555Z,97901.88
2023-10-29T08:28:44.561Z,97904.06
2023-10-29T08:31:11.997Z,97907.31
2023-10-29T08:33:38.892Z,97898.03
2023-10-29T08:36:06.005Z,97894.22
2023-10-29T08:38:33.112Z,97893.72
2023-10-29T08:41:00.316Z,97894.53
2023-10-29T08:43:29.128Z,97890.44
2023-10-29T08:45:58.307Z,97883.91
2023-10-29T08:48:26.302Z,97889.59
2023-10-29T08:50:53.467Z,97889.34
2023-10-29T08:53:20.555Z,97888.78
2023-10-29T08:55:47.677Z,97880.59
2023-10-29T08:58:14.869Z,97886.28
2023-10-29T09:00:46.624Z,97871.88
2023-10-29T09:03:16.025Z,97885.97
2023-10-29T09:05:44.169Z,97879.16
2023-10-29T09:08:11.463Z,97879.16
2023-10-29T09:10:43.454Z,97893.81
2023-10-29T09:13:11.234Z,97896.81
2023-10-29T09:15:38.809Z,97892.44
2023-10-29T09:18:06.924Z,97882.63
2023-10-29T09:20:34.167Z,97889.94
2023-10-29T09:23:01.391Z,97889.09
2023-10-29T09:25:28.536Z,97879.78
2023-10-29T09:27:55.393Z,97893.88
2023-10-29T09:30:22.604Z,97881.06
2023-10-29T09:32:50.435Z,97884.84
2023-10-29T09:35:17.372Z,97881.00
2023-10-29T09:37:44.281Z,97886.12
2023-10-29T09:40:15.354Z,97890.44
2023-10-29T09:42:57.028Z,97913.53
2023-10-29T09:45:26.625Z,97911.00
2023-10-29T09:47:54.320Z,97918.88
2023-10-29T09:50:25.517Z,97923.75
2023-10-29T09:52:54.423Z,97919.63
2023-10-29T09:55:23.291Z,97918.78
2023-10-29T09:57:51.516Z,97921.75
2023-10-29T10:00:19.096Z,97916.25
2023-10-29T10:02:57.005Z,97926.56
2023-10-29T10:05:25.930Z,97922.44
2023-10-29T10:07:53.407Z,97929.78
2023-10-29T10:10:22.204Z,97921.03
2023-10-29T10:12:51.104Z,97931.38
2023-10-29T10:15:19.515Z,97921.50
2023-10-29T10:17:50.978Z,97935.09
2023-10-29T10:20:22.405Z,97929.06
2023-10-29T10:22:58.840Z,97924.16
2023-10-29T10:25:27.226Z,97917.84
2023-10-29T10:27:56.800Z,97914.75
2023-10-29T10:30:29.392Z,97913.06
2023-10-29T10:33:13.128Z,97910.28
2023-10-29T10:35:46.890Z,97897.16
2023-10-29T10:38:16.172Z,97899.50
2023-10-29T10:40:43.585Z,97887.44
2023-10-29T10:43:10.738Z,97894.75
2023-10-29T10:45:38.776Z,97881.87
2023-10-29T10:48:07.018Z,97885.34
2023-10-29T10:50:35.951Z,97889.91
2023-10-29T10:53:04.264Z,97886.31
2023-10-29T10:55:47.526Z,97884.59
2023-10-29T10:58:19.909Z,97884.88
2023-10-29T11:00:50.260Z,97880.97
2023-10-29T11:03:31.765Z,97874.13
2023-10-29T11:05:59.245Z,97880.59
2023-10-29T11:08:27.169Z,97878.09
2023-10-29T11:10:58.520Z,97884.88
2023-10-29T11:13:27.645Z,97881.59
2023-10-29T11:15:56.559Z,97882.63
2023-10-29T11:18:33.446Z,97872.44
2023-10-29T11:21:03.827Z,97875.88
2023-10-29T11:23:31.555Z,97866.81
2023-10-29T11:26:21.908Z,97870.59
2023-10-29T11:28:55.988Z,97874.03
2023-10-29T11:31:24.612Z,97865.75
2023-10-29T11:33:57.379Z,97851.50
2023-10-29T11:36:36.123Z,97855.78
2023-10-29T11:39:15.986Z,97856.53
2023-10-29T11:41:50.267Z,97849.03
2023-10-29T11:44:26.772Z,97842.38
2023-10-29T11:46:59.530Z,97835.69
2023-10-29T11:49:50.568Z,97829.84
2023-10-29T11:52:17.743Z,97833.00
2023-10-29T11:54:45.020Z,97809.41
2023-10-29T11:57:13.062Z,97818.34
2023-10-29T11:59:56.399Z,97833.56
2023-10-29T12:02:25.095Z,97826.28
2023-10-29T12:04:52.425Z,97819.88
2023-10-29T12:07:26.564Z,97822.22
2023-10-29T12:10:07.372Z,97832.47
2023-10-29T12:12:35.013Z,97826.28
2023-10-29T12:15:02.820Z,97836.00
2023-10-29T12:17:30.186Z,97839.78
2023-10-29T12:19:57.519Z,97836.91
2023-10-29T12:22:26.599Z,97840.66
2023-10-29T12:24:56.657Z,97838.94
2023-10-29T12:27:24.271Z,97832.84
2023-10-29T12:29:52.004Z,97827.88
2023-10-29T12:32:26.691Z,97839.03
2023-10-29T12:34:53.437Z,97828.78
2023-10-29T12:37:32.054Z,97826.13
2023-10-29T12:40:01.286Z,97824.38
2023-10-29T12:42:54.676Z,97805.91
2023-10-29T12:45:32.818Z,97798.69
2023-10-29T12:48:14.108Z,97798.37
2023-10-29T12:51:08.296Z,97804.09
2023-10-29T12:53:35.303Z,97805.69
2023-10-29T12:56:02.894Z,97796.88
2023-10-29T12:58:30.296Z,97783.03
2023-10-29T13:00:58.859Z,97784.97
2023-10-29T13:03:26.303Z,97778.38
2023-10-29T13:05:55.787Z,97790.63
2023-10-29T13:08:25.741Z,97793.09
2023-10-29T13:10:54.343Z,97780.78
2023-10-29T13:13:24.942Z,97781.91
2023-10-29T13:15:52.209Z,97778.06
2023-10-29T13:18:20.540Z,97780.78
2023-10-29T13:20:48.797Z,97778.06
2023-10-29T13:23:15.909Z,97789.81
2023-10-29T13:25:42.977Z,97792.56
2023-10-29T13:28:10.212Z,97789.50
2023-10-29T13:30:37.811Z,97800.78
2023-10-29T13:33:05.397Z,97797.22
2023-10-29T13:35:33.164Z,97798.34
2023-10-29T13:38:00.578Z,97798.34
2023-10-29T13:40:27.449Z,97803.84
2023-10-29T13:42:55.092Z,97805.44
2023-10-29T13:45:22.250Z,97801.91
2023-10-29T13:47:49.503Z,97801.09
2023-10-29T13:50:16.778Z,97805.75
2023-10-29T13:52:44.313Z,97802.53
2023-10-29T13:55:11.613Z,97794.31
2023-10-29T13:57:38.536Z,97801.72
2023-10-29T14:00:08.125Z,97798.16
2023-10-29T14:02:36.616Z,97800.09
2023-10-29T14:05:04.027Z,97805.09
2023-10-29T14:07:33.201Z,97792.50
2023-10-29T14:10:00.446Z,97783.97
2023-10-29T14:12:27.279Z,97786.22
2023-10-29T14:14:54.475Z,97784.28
2023-10-29T14:17:21.819Z,97782.34
2023-10-29T14:19:48.805Z,97782.34
2023-10-29T14:22:16.358Z,97793.81
2023-10-29T14:24:43.884Z,97799.59
2023-10-29T14:27:11.320Z,97789.47
2023-10-29T14:29:38.405Z,97793.63
2023-10-29T14:32:06.864Z,97802.66
2023-10-29T14:34:33.884Z,97802.97
2023-10-29T14:37:01.298Z,97802.16
2023-10-29T14:39:28.763Z,97805.69
2023-10-29T14:41:55.900Z,97805.69
2023-10-29T14:44:23.013Z,97802.16
2023-10-29T14:46:50.398Z,97803.25
2023-10-29T14:49:18.009Z,97803.25
2023-10-29T14:51:45.497Z,97792.59
2023-10-29T14:54:13.732Z,97794.53
2023-10-29T14:56:41.357Z,97786.62
2023-10-29T14:59:11.565Z,97798.69
2023-10-29T15:01:39.140Z,97789.69
2023-10-29T15:04:06.463Z,97785.00
2023-10-29T15:06:34.157Z,97790.78
2023-10-29T15:09:01.506Z,97806.41
2023-10-29T15:11:36.693Z,97813.81
2023-10-29T15:14:06.631Z,97822.03
2023-10-29T15:16:34.493Z,97832.19
2023-10-29T15:19:04.639Z,97836.84
2023-10-29T15:21:34.054Z,97846.19
2023-10-29T15:24:01.808Z,97852.75
2023-10-29T15:26:28.931Z,97851.94
2023-10-29T15:28:56.280Z,97850.34
2023-10-29T15:31:23.689Z,97850.94
2023-10-29T15:33:51.226Z,97849.34
2023-10-29T15:36:19.323Z,97854.31
2023-10-29T15:38:47.026Z,97863.12
2023-10-29T15:41:14.546Z,97863.75
2023-10-29T15:43:41.998Z,97864.06
2023-10-29T15:46:10.345Z,97862.44
2023-10-29T15:48:38.886Z,97862.25
2023-10-29T15:51:09.880Z,97856.56
2023-10-29T15:53:38.041Z,97857.66
2023-10-29T15:56:10.063Z,97852.00
2023-10-29T15:58:37.640Z,97851.50
2023-10-29T16:01:05.675Z,97853.44
2023-10-29T16:03:33.730Z,97858.41
2023-10-29T16:06:09.040Z,97854.34
2023-10-29T16:08:40.209Z,97852.22
2023-10-29T16:11:09.508Z,97862.38
2023-10-29T16:13:38.287Z,97861.06
2023-10-29T16:16:06.711Z,97857.81
2023-10-29T16:18:34.849Z,97867.44
2023-10-29T16:21:02.828Z,97855.16
2023-10-29T16:23:31.543Z,97871.06
2023-10-29T16:25:59.179Z,97863.97
2023-10-29T16:28:26.770Z,97861.53
2023-10-29T16:30:56.852Z,97872.78
2023-10-29T16:33:25.055Z,97884.84
2023-10-29T16:35:54.825Z,97878.56
2023-10-29T16:38:23.468Z,97887.09
2023-10-29T16:40:52.162Z,97881.91
2023-10-29T16:43:20.338Z,97888.50
2023-10-29T16:45:48.360Z,97884.16
2023-10-29T16:48:17.883Z,97882.03
2023-10-29T16:50:59.799Z,97871.06
2023-10-29T16:53:32.199Z,97873.81
2023-10-29T16:56:07.990Z,97872.19
2023-10-29T16:58:36.810Z,97876.34
2023-10-29T17:01:05.289Z,97881.00
2023-10-29T17:03:33.177Z,97887.59
2023-10-29T17:06:01.091Z,97874.19
2023-10-29T17:08:29.358Z,97888.72
2023-10-29T17:11:02.647Z,97882.41
2023-10-29T17:13:31.149Z,97893.34
2023-10-29T17:16:05.691Z,97890.91
2023-10-29T17:18:34.095Z,97886.25
2023-10-29T17:21:02.940Z,97893.66
2023-10-29T17:23:30.966Z,97897.81
2023-10-29T17:25:59.596Z,97901.34
2023-10-29T17:28:28.144Z,97903.28
2023-10-29T17:30:56.109Z,97899.72
2023-10-29T17:33:25.080Z,97894.56
2023-10-29T17:35:52.992Z,97897.59
2023-10-29T17:38:20.891Z,97896.78
2023-10-29T17:40:48.951Z,97892.44
2023-10-29T17:43:17.080Z,97883.72
2023-10-29T17:45:46.533Z,97881.78
2023-10-29T17:48:14.634Z,97880.97
2023-10-29T17:50:45.696Z,97873.87
2023-10-29T17:53:13.367Z,97881.09
2023-10-29T17:55:41.165Z,97868.00
2023-10-29T17:58:08.818Z,97872.38
2023-10-29T18:00:36.750Z,97865.50
2023-10-29T18:03:04.226Z,97874.63
2023-10-29T18:05:33.218Z,97873.00
2023-10-29T18:08:00.910Z,97872.19
2023-10-29T18:10:29.072Z,97877.66
2023-10-29T18:13:00.052Z,97869.44
2023-10-29T18:15:27.625Z,97881.72
2023-10-29T18:17:57.026Z,97884.75
2023-10-29T18:20:26.210Z,97888.59
2023-10-29T18:22:56.376Z,97896.50
2023-10-29T18:25:24.534Z,97904.69
2023-10-29T18:27:52.546Z,97907.13
2023-10-29T18:30:22.109Z,97892.94
2023-10-29T18:32:56.978Z,97893.25
2023-10-29T18:35:24.823Z,97889.69
2023-10-29T18:37:55.272Z,97898.41
2023-10-29T18:40:23.285Z,97902.25
2023-10-29T18:42:52.610Z,97899.53
2023-10-29T18:45:20.704Z,97901.44
2023-10-29T18:47:51.527Z,97887.78
2023-10-29T18:50:21.107Z,97886.66
2023-10-29T18:52:49.402Z,97873.31
2023-10-29T18:55:18.516Z,97857.72
2023-10-29T18:57:46.411Z,97865.59
2023-10-29T19:00:16.050Z,97872.19
2023-10-29T19:02:44.711Z,97862.06
2023-10-29T19:05:14.739Z,97862.88
2023-10-29T19:07:43.953Z,97861.75
2023-10-29T19:10:12.311Z,97850.00
2023-10-29T19:12:40.642Z,97854.38
2023-10-29T19:15:10.736Z,97854.38
2023-10-29T19:17:41.402Z,97860.66
2023-10-29T19:20:09.685Z,97854.88
2023-10-29T19:22:37.676Z,97863.09
2023-10-29T19:25:07.884Z,97863.88
2023-10-29T19:27:36.521Z,97870.97
2023-10-29T19:30:06.533Z,97878.06
2023-10-29T19:32:37.407Z,97886.28
2023-10-29T19:35:05.516Z,97891.44
2023-10-29T19:37:33.388Z,97902.06
2023-10-29T19:40:04.112Z,97912.19
2023-10-29T19:42:33.239Z,97914.94
2023-10-29T19:45:04.891Z,97920.41
2023-10-29T19:47:35.288Z,97923.94
2023-10-29T19:50:04.987Z,97921.22
2023-10-29T19:52:43.520Z,97924.75
2023-10-29T19:55:17.217Z,97933.78
2023-10-29T19:57:48.913Z,97927.50
2023-10-29T20:00:21.697Z,97912.50
2023-10-29T20:02:50.706Z,97928.41
2023-10-29T20:05:19.277Z,97925.66
2023-10-29T20:07:48.005Z,97922.41
2023-10-29T20:10:16.256Z,97926.25
2023-10-29T20:12:44.772Z,97913.72
2023-10-29T20:15:17.368Z,97915.94
2023-10-29T20:17:47.123Z,97917.84
2023-10-29T20:20:17.869Z,97921.69
2023-10-29T20:22:46.358Z,97922.00
2023-10-29T20:25:15.421Z,97923.41
2023-10-29T20:27:44.320Z,97915.22
2023-10-29T20:30:11.995Z,97910.00
2023-10-29T20:32:40.665Z,97913.56
2023-10-29T20:35:09.453Z,97909.50
2023-10-29T20:37:37.475Z,97909.50
2023-10-29T20:40:06.287Z,97902.41
2023-10-29T20:42:34.314Z,97904.34
2023-10-29T20:45:02.509Z,97905.16
2023-10-29T20:47:31.092Z,97904.34
2023-10-29T20:49:58.839Z,97908.19
2023-10-29T20:52:26.614Z,97901.59
2023-10-29T20:54:54.311Z,97907.38
2023-10-29T20:57:24.169Z,97906.56
2023-10-29T20:59:51.975Z,97904.13
2023-10-29T21:02:19.403Z,97908.78
2023-10-29T21:04:46.935Z,97904.13
2023-10-29T21:07:14.378Z,97905.22
2023-10-29T21:09:42.351Z,97907.97
2023-10-29T21:12:09.638Z,97901.69
2023-10-29T21:14:37.060Z,97911.81
2023-10-29T21:17:04.895Z,97908.56
2023-10-29T21:19:32.959Z,97911.59
2023-10-29T21:22:01.968Z,97911.59
2023-10-29T21:24:29.983Z,97917.06
2023-10-29T21:26:57.524Z,97913.53
2023-10-29T21:29:25.234Z,97916.25
2023-10-29T21:31:52.474Z,97910.78
2023-10-29T21:34:19.371Z,97908.34
2023-10-29T21:36:46.560Z,97903.69
2023-10-29T21:39:14.028Z,97910.28
2023-10-29T21:41:41.232Z,97911.91
2023-10-29T21:44:08.072Z,97902.88
2023-10-29T21:46:35.829Z,97906.44
2023-10-29T21:49:02.767Z,97905.63
2023-10-29T21:51:31.305Z,97909.16
2023-10-29T21:53:58.399Z,97909.16
2023-10-29T21:56:25.588Z,97910.28
2023-10-29T21:58:53.174Z,97901.28
2023-10-29T22:01:23.810Z,97913.00
2023-10-29T22:03:51.324Z,97919.87
2023-10-29T22:06:18.911Z,97922.31
2023-10-29T22:08:46.052Z,97918.78
2023-10-29T22:11:15.613Z,97918.78
2023-10-29T22:13:43.127Z,97917.16
2023-10-29T22:16:12.824Z,97917.75
2023-10-29T22:18:40.471Z,97914.22
2023-10-29T22:21:14.147Z,97921.28
2023-10-29T22:23:41.641Z,97931.41
2023-10-29T22:26:09.658Z,97928.97
2023-10-29T22:28:38.082Z,97925.69
2023-10-29T22:31:05.730Z,97928.44
2023-10-29T22:33:33.842Z,97925.69
2023-10-29T22:36:05.462Z,97929.53
2023-10-29T22:38:32.888Z,97927.94
2023-10-29T22:41:07.597Z,97924.69
2023-10-29T22:43:35.198Z,97930.66
2023-10-29T22:46:03.453Z,97921.44
2023-10-29T22:48:30.749Z,97915.97
2023-10-29T22:51:01.437Z,97917.88
2023-10-29T22:53:28.651Z,97923.34
2023-10-29T22:55:59.377Z,97918.19
2023-10-29T22:58:29.608Z,97920.91
2023-10-29T23:00:57.232Z,97910.50
2023-10-29T23:03:25.737Z,97907.25
2023-10-29T23:05:53.459Z,97909.41
2023-10-29T23:08:20.424Z,97905.03
2023-10-29T23:10:47.305Z,97908.88
2023-10-29T23:13:14.363Z,97914.03
2023-10-29T23:15:41.877Z,97908.88
2023-10-29T23:18:08.756Z,97911.63
2023-10-29T23:20:35.861Z,97909.41
2023-10-29T23:23:04.503Z,97901.50
2023-10-29T23:25:31.585Z,97905.03
2023-10-29T23:27:58.359Z,97903.94
2023-10-29T23:30:25.638Z,97899.56
2023-10-29T23:32:52.570Z,97894.91
2023-10-29T23:35:19.777Z,97894.09
2023-10-29T23:37:46.660Z,97894.09
2023-10-29T23:40:14.030Z,97894.09
2023-10-29T23:42:42.570Z,97893.00
2023-10-29T23:45:09.989Z,97893.00
2023-10-29T23:47:37.347Z,97885.62
2023-10-29T23:50:05.079Z,97884.81
2023-10-29T23:52:32.751Z,97882.59
2023-10-29T23:55:00.000Z,97890.78
2023-10-29T23:57:27.890Z,97890.78
2023-10-29T23:59:55.345Z,97887.44
